CheckWX is a tool to help pilots better visualize weather data.  It is not intended as a substitute for an official pre-flight weather briefing.

04:00:58 UTC

KHYS METAR
Hays Regional Airport
Hays, Kansas, USA
Current

5 mins ago

KHYS 270356Z AUTO 00000KT 10SM OVC011 19/17 A2985 RMK AO2 LTG DSNT N TSB22E37 SLP096 T01940172
Observed
May-27 @ 03:56 UTC
Visibility
10 SM
Flight Rules
MVFR
Cloud Levels
  • Overcast at 1,100' AGL
Temperature
19°C / 66°F
Dewpoint
17°C / 63°F
Humidity
88%
Altimeter
29.85" Hg
Pressure
1010.82 hPa
Previous

28 mins ago

KHYS 270333Z AUTO 36014KT 10SM VCTS BKN011 BKN018 18/17 A2981 RMK AO2 LTG DSNT N AND NE TSB22
Observed
May-27 @ 03:33 UTC
Wind
  • 360° at 14 KTS
Visibility
10 SM
Flight Rules
MVFR
Conditions
Area Thunderstorm
Cloud Levels
  • Broken at 1,100' AGL
  • Broken at 1,800' AGL
Temperature
18°C / 64°F
Dewpoint
17°C / 63°F
Humidity
94%
Altimeter
29.81" Hg
Pressure
1009.52 hPa
Previous

38 mins ago

KHYS 270323Z AUTO 35003KT 10SM VCTS SCT013 BKN018 18/17 A2985 RMK AO2 LTG DSNT N TSB22
Observed
May-27 @ 03:23 UTC
Wind
  • 350° at 3 KTS
Visibility
10 SM
Flight Rules
MVFR
Conditions
Area Thunderstorm
Cloud Levels
  • Scattered at 1,300' AGL
  • Broken at 1,800' AGL
Temperature
18°C / 64°F
Dewpoint
17°C / 63°F
Humidity
94%
Altimeter
29.85" Hg
Pressure
1010.82 hPa